Time,TemperatureF,DewpointF,PressureIn,WindDirection,WindDirectionDegrees,WindSpeedMPH,WindSpeedGustMPH,Humidity,HourlyPrecipIn,Conditions,Clouds,dailyrainin,SoftwareType,DateUTC
2013-08-11 00:04:00,73.7,71.0,30.07,West,272,0.0,0.0,90,0.00,,,0.00,weatherlink.com 1.10,2013-08-11 04:04:00,
2013-08-11 00:19:00,73.5,71.0,30.07,West,272,0.0,0.0,90,0.00,,,0.00,weatherlink.com 1.10,2013-08-11 04:19:00,
2013-08-11 00:34:00,73.5,71.0,30.06,West,272,0.0,0.0,90,0.00,,,0.00,weatherlink.com 1.10,2013-08-11 04:34:00,
2013-08-11 00:49:00,73.3,71.0,30.06,West,272,0.0,0.0,91,0.00,,,0.00,weatherlink.com 1.10,2013-08-11 04:49:00,
2013-08-11 01:04:00,73.2,71.0,30.06,West,272,0.0,0.0,92,0.00,,,0.00,weatherlink.com 1.10,2013-08-11 05:04:00,
2013-08-11 01:19:00,73.0,71.0,30.05,West,272,0.0,0.0,92,0.00,,,0.00,weatherlink.com 1.10,2013-08-11 05:19:00,
2013-08-11 01:35:00,73.0,71.0,30.05,West,272,0.0,0.0,92,0.00,,,0.00,weatherlink.com 1.10,2013-08-11 05:35:00,
2013-08-11 01:50:00,72.8,70.0,30.05,West,272,0.0,0.0,92,0.00,,,0.00,weatherlink.com 1.10,2013-08-11 05:50:00,
2013-08-11 02:05:00,72.7,71.0,30.04,West,272,0.0,0.0,93,0.00,,,0.00,weatherlink.com 1.10,2013-08-11 06:05:00,
2013-08-11 02:20:00,72.5,70.0,30.04,West,272,0.0,0.0,93,0.00,,,0.00,weatherlink.com 1.10,2013-08-11 06:20:00,
2013-08-11 02:35:00,72.5,70.0,30.04,West,272,0.0,0.0,93,0.00,,,0.00,weatherlink.com 1.10,2013-08-11 06:35:00,
2013-08-11 02:50:00,72.3,70.0,30.04,West,272,0.0,0.0,93,0.00,,,0.00,weatherlink.com 1.10,2013-08-11 06:50:00,
2013-08-11 03:05:00,72.1,70.0,30.04,West,272,0.0,0.0,94,0.00,,,0.00,weatherlink.com 1.10,2013-08-11 07:05:00,
2013-08-11 03:35:00,72.1,71.0,30.04,West,272,0.0,0.0,95,0.00,,,0.00,weatherlink.com 1.10,2013-08-11 07:35:00,
2013-08-11 03:50:00,72.1,71.0,30.04,West,272,0.0,0.0,95,0.00,,,0.00,weatherlink.com 1.10,2013-08-11 07:50:00,
2013-08-11 04:05:00,72.1,71.0,30.04,West,272,0.0,0.0,95,0.00,,,0.00,weatherlink.com 1.10,2013-08-11 08:05:00,
2013-08-11 04:35:00,72.3,71.0,30.05,West,272,0.0,0.0,95,0.00,,,0.00,weatherlink.com 1.10,2013-08-11 08:35:00,
2013-08-11 05:05:00,72.3,71.0,30.05,West,272,0.0,0.0,96,0.00,,,0.00,weatherlink.com 1.10,2013-08-11 09:05:00,
2013-08-11 05:20:00,72.1,71.0,30.06,West,272,0.0,0.0,96,0.00,,,0.00,weatherlink.com 1.10,2013-08-11 09:20:00,
2013-08-11 05:35:00,72.3,71.0,30.06,West,272,0.0,1.0,96,0.00,,,0.00,weatherlink.com 1.10,2013-08-11 09:35:00,
2013-08-11 05:50:00,72.3,71.0,30.06,West,272,0.0,0.0,96,0.00,,,0.00,weatherlink.com 1.10,2013-08-11 09:50:00,
2013-08-11 06:05:00,72.1,71.0,30.07,West,272,0.0,0.0,96,0.00,,,0.00,weatherlink.com 1.10,2013-08-11 10:05:00,
2013-08-11 06:20:00,72.1,71.0,30.07,West,272,0.0,0.0,96,0.00,,,0.00,weatherlink.com 1.10,2013-08-11 10:20:00,
2013-08-11 06:35:00,72.1,71.0,30.07,West,272,0.0,0.0,96,0.00,,,0.00,weatherlink.com 1.10,2013-08-11 10:35:00,
2013-08-11 07:20:00,72.3,71.0,30.07,West,272,0.0,0.0,97,0.00,,,0.00,weatherlink.com 1.10,2013-08-11 11:20:00,
2013-08-11 07:35:00,72.3,71.0,30.07,West,272,0.0,0.0,97,0.00,,,0.00,weatherlink.com 1.10,2013-08-11 11:35:00,
2013-08-11 07:50:00,72.7,72.0,30.07,West,272,0.0,0.0,97,0.00,,,0.00,weatherlink.com 1.10,2013-08-11 11:50:00,
2013-08-11 08:05:00,73.2,73.0,30.08,West,272,0.0,0.0,98,0.00,,,0.00,weatherlink.com 1.10,2013-08-11 12:05:00,
2013-08-11 09:05:00,74.7,72.0,30.09,West,272,0.0,1.0,92,0.00,,,0.00,weatherlink.com 1.10,2013-08-11 13:05:00,
2013-08-11 09:20:00,75.6,72.0,30.09,West,272,0.0,1.0,88,0.00,,,0.00,weatherlink.com 1.10,2013-08-11 13:20:00,
2013-08-11 09:35:00,76.5,72.0,30.08,NW,306,0.0,2.0,86,0.00,,,0.00,weatherlink.com 1.10,2013-08-11 13:35:00,
2013-08-11 09:50:00,77.7,72.0,30.09,SE,136,0.0,2.0,83,0.00,,,0.00,weatherlink.com 1.10,2013-08-11 13:50:00,
2013-08-11 10:05:00,79.0,72.0,30.09,SW,223,0.0,3.0,79,0.00,,,0.00,weatherlink.com 1.10,2013-08-11 14:05:00,
2013-08-11 10:20:00,80.3,71.0,30.09,ESE,118,0.0,2.0,74,0.00,,,0.00,weatherlink.com 1.10,2013-08-11 14:20:00,
2013-08-11 10:35:00,81.1,72.0,30.09,SSE,163,1.0,3.0,74,0.00,,,0.00,weatherlink.com 1.10,2013-08-11 14:35:00,
2013-08-11 10:50:00,82.0,72.0,30.09,NNW,334,0.0,3.0,72,0.00,,,0.00,weatherlink.com 1.10,2013-08-11 14:50:00,
2013-08-11 11:05:00,82.6,72.0,30.09,WSW,246,0.0,3.0,71,0.00,,,0.00,weatherlink.com 1.10,2013-08-11 15:05:00,
2013-08-11 11:20:00,83.2,72.0,30.08,ENE,65,1.0,4.0,70,0.00,,,0.00,weatherlink.com 1.10,2013-08-11 15:20:00,
2013-08-11 11:50:00,84.7,72.0,30.08,South,176,1.0,2.0,65,0.00,,,0.00,weatherlink.com 1.10,2013-08-11 15:50:00,
2013-08-11 12:05:00,85.5,72.0,30.07,SSE,164,0.0,2.0,64,0.00,,,0.00,weatherlink.com 1.10,2013-08-11 16:05:00,
2013-08-11 12:36:00,87.4,72.0,30.06,NW,325,1.0,2.0,61,0.00,,,0.00,weatherlink.com 1.10,2013-08-11 16:36:00,
2013-08-11 13:06:00,89.7,72.0,30.05,NW,326,0.0,1.0,57,0.00,,,0.00,weatherlink.com 1.10,2013-08-11 17:06:00,
2013-08-11 13:21:00,90.1,72.0,30.06,NW,313,0.0,3.0,55,0.00,,,0.00,weatherlink.com 1.10,2013-08-11 17:21:00,
2013-08-11 13:36:00,91.4,71.0,30.05,NE,50,0.0,3.0,52,0.00,,,0.00,weatherlink.com 1.10,2013-08-11 17:36:00,
2013-08-11 13:51:00,92.7,73.0,30.04,SW,230,2.0,3.0,52,0.00,,,0.00,weatherlink.com 1.10,2013-08-11 17:51:00,
2013-08-11 14:06:00,91.4,71.0,30.04,SW,229,0.0,1.0,52,0.00,,,0.00,weatherlink.com 1.10,2013-08-11 18:06:00,
2013-08-11 14:21:00,91.6,71.0,30.04,SW,229,0.0,3.0,51,0.00,,,0.00,weatherlink.com 1.10,2013-08-11 18:21:00,
2013-08-11 14:36:00,91.6,72.0,30.03,South,180,0.0,4.0,53,0.00,,,0.00,weatherlink.com 1.10,2013-08-11 18:36:00,
2013-08-11 14:51:00,92.3,73.0,30.02,SSE,161,0.0,3.0,53,0.00,,,0.00,weatherlink.com 1.10,2013-08-11 18:51:00,
2013-08-11 15:06:00,91.6,71.0,30.02,SSW,194,0.0,3.0,51,0.00,,,0.00,weatherlink.com 1.10,2013-08-11 19:06:00,
2013-08-11 15:21:00,90.5,74.0,30.02,SSW,194,0.0,1.0,58,0.00,,,0.00,weatherlink.com 1.10,2013-08-11 19:21:00,
2013-08-11 15:51:00,88.8,72.0,30.01,South,188,0.0,1.0,58,0.00,,,0.00,weatherlink.com 1.10,2013-08-11 19:51:00,
2013-08-11 16:06:00,91.0,73.0,30.00,SSE,165,0.0,2.0,56,0.00,,,0.00,weatherlink.com 1.10,2013-08-11 20:06:00,
2013-08-11 16:21:00,91.2,71.0,29.99,WSW,242,1.0,3.0,51,0.00,,,0.00,weatherlink.com 1.10,2013-08-11 20:21:00,
2013-08-11 16:36:00,90.5,70.0,29.99,SSW,206,1.0,4.0,51,0.00,,,0.00,weatherlink.com 1.10,2013-08-11 20:36:00,
2013-08-11 16:51:00,91.0,72.0,29.99,North,10,0.0,1.0,53,0.00,,,0.00,weatherlink.com 1.10,2013-08-11 20:51:00,
2013-08-11 17:06:00,90.5,72.0,30.00,NE,56,2.0,6.0,54,0.00,,,0.00,weatherlink.com 1.10,2013-08-11 21:06:00,
2013-08-11 17:21:00,89.7,71.0,29.99,NNE,25,0.0,4.0,54,0.00,,,0.00,weatherlink.com 1.10,2013-08-11 21:21:00,
2013-08-11 17:36:00,89.9,72.0,30.00,SSW,212,0.0,4.0,55,0.00,,,0.00,weatherlink.com 1.10,2013-08-11 21:36:00,
2013-08-11 17:51:00,89.3,72.0,30.00,ESE,108,0.0,1.0,57,0.00,,,0.00,weatherlink.com 1.10,2013-08-11 21:51:00,
2013-08-11 18:06:00,88.0,72.0,30.00,ESE,108,0.0,0.0,60,0.00,,,0.00,weatherlink.com 1.10,2013-08-11 22:06:00,
2013-08-11 18:21:00,87.0,73.0,30.00,ESE,108,0.0,0.0,64,0.00,,,0.00,weatherlink.com 1.10,2013-08-11 22:21:00,
2013-08-11 18:51:00,86.7,74.0,30.00,WNW,287,0.0,6.0,65,0.00,,,0.00,weatherlink.com 1.10,2013-08-11 22:51:00,
2013-08-11 19:06:00,86.1,73.0,29.99,South,191,1.0,3.0,64,0.00,,,0.00,weatherlink.com 1.10,2013-08-11 23:06:00,
2013-08-11 19:36:00,83.8,73.0,30.00,ESE,117,0.0,0.0,69,0.00,,,0.00,weatherlink.com 1.10,2013-08-11 23:36:00,
2013-08-11 20:21:00,81.2,72.0,30.01,ESE,117,0.0,0.0,73,0.00,,,0.00,weatherlink.com 1.10,2013-08-12 00:21:00,
2013-08-11 20:36:00,80.5,72.0,30.01,ESE,117,0.0,0.0,74,0.00,,,0.00,weatherlink.com 1.10,2013-08-12 00:36:00,
2013-08-11 20:51:00,79.9,72.0,30.01,ESE,117,0.0,0.0,76,0.00,,,0.00,weatherlink.com 1.10,2013-08-12 00:51:00,
2013-08-11 21:06:00,79.6,72.0,30.01,ESE,117,0.0,0.0,77,0.00,,,0.00,weatherlink.com 1.10,2013-08-12 01:06:00,
2013-08-11 21:51:00,79.2,71.0,30.02,ESE,117,0.0,0.0,75,0.00,,,0.00,weatherlink.com 1.10,2013-08-12 01:51:00,
2013-08-11 22:06:00,78.6,70.0,30.03,ESE,117,0.0,0.0,76,0.00,,,0.00,weatherlink.com 1.10,2013-08-12 02:06:00,
2013-08-11 22:21:00,78.3,71.0,30.03,ESE,117,0.0,0.0,78,0.00,,,0.00,weatherlink.com 1.10,2013-08-12 02:21:00,
2013-08-11 22:36:00,77.6,71.0,30.03,ESE,117,0.0,0.0,80,0.00,,,0.00,weatherlink.com 1.10,2013-08-12 02:36:00,
2013-08-11 23:21:00,76.3,71.0,30.04,ESE,117,0.0,0.0,83,0.00,,,0.00,weatherlink.com 1.10,2013-08-12 03:21:00,
2013-08-11 23:36:00,76.1,71.0,30.04,ESE,117,0.0,0.0,84,0.00,,,0.00,weatherlink.com 1.10,2013-08-12 03:36:00,
2013-08-11 23:51:00,76.0,71.0,30.04,ESE,117,0.0,0.0,85,0.00,,,0.00,weatherlink.com 1.10,2013-08-12 03:51:00,